Time;durP1;ratioP1;P1;durP2;ratioP2;P2;SDS_P1;SDS_P2;PMS_P1;PMS_P2;Temp;Humidity;BMP_temperature;BMP_pressure;BME280_temperature;BME280_humidity;BME280_pressure;Samples;Min_cycle;Max_cycle;Signal;HPM_P1;HPM_P2
2023/07/14 00:01:39;;;;;;;3.40;2.10;;;16.60;99.90;;;;;;5150176;27;20026;-70
2023/07/14 00:04:16;;;;;;;3.63;1.85;;;16.50;99.90;;;;;;5134709;28;20043;-70
2023/07/14 00:06:45;;;;;;;2.80;2.00;;;16.50;99.90;;;;;;5137388;28;20117;-70
2023/07/14 00:09:28;;;;;;;2.85;1.75;;;16.40;99.90;;;;;;5119660;28;20034;-70
2023/07/14 00:11:54;;;;;;;4.57;2.03;;;16.40;99.90;;;;;;5137866;28;20015;-70
2023/07/14 00:14:20;;;;;;;4.70;1.70;;;16.40;99.90;;;;;;5137980;28;20060;-70
2023/07/14 00:16:46;;;;;;;2.67;2.00;;;16.40;99.90;;;;;;5137780;28;20042;-70
2023/07/14 00:19:17;;;;;;;2.78;2.22;;;16.40;99.90;;;;;;5138016;28;20023;-70
2023/07/14 00:21:44;;;;;;;4.20;2.50;;;16.40;99.90;;;;;;5137492;28;20023;-70
2023/07/14 00:24:13;;;;;;;5.82;2.13;;;16.40;99.90;;;;;;5140270;27;20047;-70
2023/07/14 00:26:40;;;;;;;2.80;2.05;;;16.30;99.90;;;;;;5142005;27;20030;-70
2023/07/14 00:29:28;;;;;;;3.95;2.15;;;16.30;99.90;;;;;;5142159;27;20038;-70
2023/07/14 00:31:55;;;;;;;4.35;2.45;;;16.30;99.90;;;;;;5142462;27;20098;-70
2023/07/14 00:34:21;;;;;;;12.77;2.33;;;16.30;99.90;;;;;;5141595;27;20019;-70
2023/07/14 00:36:47;;;;;;;2.42;2.00;;;16.20;99.90;;;;;;5141498;27;20027;-69
2023/07/14 00:39:12;;;;;;;4.30;2.30;;;16.20;99.90;;;;;;5141706;27;20482;-69
2023/07/14 00:41:38;;;;;;;4.88;1.92;;;16.20;99.90;;;;;;5141897;27;20082;-70
2023/07/14 00:44:04;;;;;;;3.85;2.58;;;16.10;99.90;;;;;;5141652;27;20031;-70
2023/07/14 00:46:32;;;;;;;6.28;2.20;;;16.10;99.90;;;;;;5141728;27;20475;-70
2023/07/14 00:49:04;;;;;;;3.40;2.42;;;16.10;99.90;;;;;;5141309;27;20019;-70
2023/07/14 00:51:34;;;;;;;3.05;2.55;;;16.00;99.90;;;;;;5141422;27;20047;-70
2023/07/14 00:53:59;;;;;;;4.70;2.75;;;16.00;99.90;;;;;;5141709;27;20474;-70
2023/07/14 00:56:44;;;;;;;7.40;2.30;;;16.00;99.90;;;;;;5141594;27;20046;-70
2023/07/14 00:59:16;;;;;;;5.10;2.40;;;15.90;99.90;;;;;;5110775;27;20027;-70
2023/07/14 01:02:10;;;;;;;3.85;2.15;;;15.90;99.90;;;;;;5141153;27;20019;-70
2023/07/14 01:04:41;;;;;;;3.00;2.45;;;15.80;99.90;;;;;;5141201;27;20031;-70
2023/07/14 01:07:07;;;;;;;2.70;2.30;;;15.80;99.90;;;;;;5122760;27;20494;-69
2023/07/14 01:09:34;;;;;;;4.78;2.15;;;15.80;99.90;;;;;;5123084;27;20627;-69
2023/07/14 01:12:03;;;;;;;3.00;2.30;;;15.80;99.90;;;;;;5140674;27;20027;-69
2023/07/14 01:14:32;;;;;;;4.05;2.30;;;15.80;99.90;;;;;;5140801;27;20015;-70
2023/07/14 01:16:59;;;;;;;3.30;2.50;;;15.80;99.90;;;;;;5128247;27;20486;-70
2023/07/14 01:19:43;;;;;;;6.40;2.78;;;15.70;99.90;;;;;;5122164;27;20490;-69
2023/07/14 01:22:46;;;;;;;6.53;2.38;;;15.70;99.90;;;;;;5140858;27;20035;-69
2023/07/14 01:25:18;;;;;;;3.13;2.10;;;15.70;99.90;;;;;;5129127;27;20023;-69
2023/07/14 01:27:46;;;;;;;5.22;2.75;;;15.70;99.90;;;;;;5140849;27;20020;-69
2023/07/14 01:30:12;;;;;;;3.55;2.25;;;15.60;99.90;;;;;;5140965;27;20016;-70
2023/07/14 01:32:42;;;;;;;5.78;2.53;;;15.60;99.90;;;;;;5140662;27;20027;-69
2023/07/14 01:35:09;;;;;;;4.53;2.30;;;15.60;99.90;;;;;;5121269;27;20117;-69
2023/07/14 01:37:37;;;;;;;5.22;2.50;;;15.60;99.90;;;;;;5140674;27;20083;-69
2023/07/14 01:40:11;;;;;;;4.53;2.25;;;15.60;99.90;;;;;;5140819;27;20023;-69
2023/07/14 01:42:45;;;;;;;3.20;2.38;;;15.60;99.90;;;;;;5140346;27;20102;-69
2023/07/14 01:45:14;;;;;;;4.28;2.38;;;15.50;99.90;;;;;;5140745;27;20421;-69
2023/07/14 01:47:46;;;;;;;6.38;2.60;;;15.50;99.90;;;;;;5140481;27;20051;-69
2023/07/14 01:50:38;;;;;;;3.83;2.40;;;15.50;99.90;;;;;;5140048;27;20019;-69
2023/07/14 01:53:10;;;;;;;5.00;2.50;;;15.40;99.90;;;;;;5107602;27;20042;-70
2023/07/14 01:55:38;;;;;;;3.75;2.20;;;15.40;99.90;;;;;;5140246;27;20087;-70
2023/07/14 01:58:13;;;;;;;3.97;2.67;;;15.40;99.90;;;;;;5140536;27;20083;-70
2023/07/14 02:00:40;;;;;;;3.70;2.42;;;15.40;99.90;;;;;;5139893;27;20023;-69
2023/07/14 02:03:09;;;;;;;4.43;2.13;;;15.30;99.90;;;;;;5121540;27;20043;-69
2023/07/14 02:05:38;;;;;;;3.65;2.33;;;15.30;99.90;;;;;;5140032;27;20475;-70
2023/07/14 02:08:06;;;;;;;5.82;2.80;;;15.20;99.90;;;;;;5120408;27;20020;-70
2023/07/14 02:10:33;;;;;;;4.97;2.30;;;15.20;99.90;;;;;;5139966;27;20035;-70
2023/07/14 02:13:01;;;;;;;2.67;2.13;;;15.20;99.90;;;;;;5121210;27;20012;-70
2023/07/14 02:15:31;;;;;;;4.15;2.75;;;15.10;99.90;;;;;;5139780;27;20467;-69
2023/07/14 02:17:57;;;;;;;4.30;2.55;;;15.20;99.90;;;;;;5139924;27;20022;-70
2023/07/14 02:20:34;;;;;;;2.97;2.15;;;15.20;99.90;;;;;;5139711;27;20106;-70
2023/07/14 02:23:02;;;;;;;4.60;2.30;;;15.20;99.90;;;;;;5139529;27;20023;-69
2023/07/14 02:25:34;;;;;;;2.85;2.22;;;15.20;99.90;;;;;;5121355;27;20031;-69
2023/07/14 02:27:59;;;;;;;4.18;2.72;;;15.10;99.90;;;;;;5139561;27;20096;-69
2023/07/14 02:30:27;;;;;;;2.88;2.30;;;15.20;99.90;;;;;;5139962;27;20019;-69
2023/07/14 02:33:04;;;;;;;5.13;2.38;;;15.10;99.90;;;;;;5139372;27;20476;-70
2023/07/14 02:35:43;;;;;;;7.93;4.50;;;15.10;99.90;;;;;;5122471;27;20026;-70
2023/07/14 02:38:12;;;;;;;3.83;2.10;;;15.10;99.90;;;;;;5139675;27;20432;-70
2023/07/14 02:41:15;;;;;;;5.10;3.05;;;15.10;99.90;;;;;;5139316;27;20064;-70
2023/07/14 02:43:41;;;;;;;5.07;2.33;;;15.00;99.90;;;;;;5128884;27;20064;-70
2023/07/14 02:46:17;;;;;;;6.40;2.92;;;15.00;99.90;;;;;;5138981;27;20462;-70
2023/07/14 02:48:48;;;;;;;2.80;2.10;;;14.90;99.90;;;;;;5133826;27;20019;-69
2023/07/14 02:51:14;;;;;;;4.53;2.70;;;14.90;99.90;;;;;;5139007;27;20431;-69
2023/07/14 02:53:39;;;;;;;4.10;2.55;;;14.80;99.90;;;;;;5120782;27;20026;-69
2023/07/14 02:56:05;;;;;;;6.72;2.55;;;14.80;99.90;;;;;;5120579;27;20106;-69
2023/07/14 02:58:31;;;;;;;4.75;2.60;;;14.80;99.90;;;;;;5139057;27;20030;-69
2023/07/14 03:00:57;;;;;;;14.68;3.13;;;14.70;99.90;;;;;;5120238;27;20020;-70
2023/07/14 03:03:23;;;;;;;4.38;2.60;;;14.70;99.90;;;;;;5120371;27;20494;-69
2023/07/14 03:05:51;;;;;;;5.40;2.75;;;14.60;99.90;;;;;;5119502;27;20505;-70
2023/07/14 03:08:17;;;;;;;5.95;2.47;;;14.70;99.90;;;;;;5138323;27;20027;-70
2023/07/14 03:10:46;;;;;;;3.15;2.40;;;14.60;99.90;;;;;;5138948;27;20029;-69
2023/07/14 03:13:13;;;;;;;6.22;2.40;;;14.60;99.90;;;;;;5138185;27;20033;-69
2023/07/14 03:15:38;;;;;;;3.60;2.67;;;14.60;99.90;;;;;;5138587;27;20019;-69
2023/07/14 03:18:04;;;;;;;2.97;2.47;;;14.60;99.90;;;;;;5138673;27;20093;-69
2023/07/14 03:20:30;;;;;;;6.45;2.60;;;14.50;99.90;;;;;;5138349;27;20478;-69
2023/07/14 03:22:56;;;;;;;4.55;2.65;;;14.50;99.90;;;;;;5138686;27;20102;-69
2023/07/14 03:25:21;;;;;;;7.45;3.88;;;14.50;99.90;;;;;;5138563;27;20022;-70
2023/07/14 03:27:47;;;;;;;3.97;2.65;;;14.50;99.90;;;;;;5138560;27;20494;-69
2023/07/14 03:30:13;;;;;;;6.25;3.10;;;14.50;99.90;;;;;;5138562;27;20043;-70
2023/07/14 03:32:39;;;;;;;4.47;2.55;;;14.50;99.90;;;;;;5138584;27;20038;-69
2023/07/14 03:35:05;;;;;;;3.85;2.60;;;14.50;99.90;;;;;;5138176;27;20086;-70
2023/07/14 03:37:31;;;;;;;5.57;2.67;;;14.50;99.90;;;;;;5119916;27;20077;-70
2023/07/14 03:39:57;;;;;;;3.38;2.70;;;14.50;99.90;;;;;;5138287;27;20023;-69
2023/07/14 03:42:22;;;;;;;9.02;2.83;;;14.50;99.90;;;;;;5138367;27;20038;-69
2023/07/14 03:44:48;;;;;;;3.67;2.80;;;14.50;99.90;;;;;;5154282;27;20026;-70
2023/07/14 03:47:14;;;;;;;6.22;3.08;;;14.60;99.90;;;;;;5119884;27;20069;-69
2023/07/14 03:49:39;;;;;;;3.58;2.53;;;14.50;99.90;;;;;;5137751;27;20091;-69
2023/07/14 03:52:06;;;;;;;5.53;3.13;;;14.50;99.90;;;;;;5138497;27;20026;-70
2023/07/14 03:54:32;;;;;;;5.70;2.85;;;14.50;99.90;;;;;;5138080;27;20022;-70
2023/07/14 03:57:01;;;;;;;6.57;2.80;;;14.50;99.90;;;;;;5138033;27;20012;-70
2023/07/14 03:59:27;;;;;;;8.25;3.05;;;14.50;99.90;;;;;;5138071;27;20023;-70
2023/07/14 04:01:53;;;;;;;4.57;2.70;;;14.50;99.90;;;;;;5138046;27;20026;-70
2023/07/14 04:04:20;;;;;;;4.40;3.00;;;14.40;99.90;;;;;;5137649;28;20479;-70
2023/07/14 04:06:46;;;;;;;5.50;2.80;;;14.40;99.90;;;;;;5138041;28;20034;-70
2023/07/14 04:09:12;;;;;;;4.43;3.03;;;14.30;99.90;;;;;;5137820;28;20023;-70
2023/07/14 04:11:37;;;;;;;5.93;2.83;;;14.30;99.90;;;;;;5138109;28;20023;-69
2023/07/14 04:14:05;;;;;;;9.65;2.72;;;14.30;99.90;;;;;;5137694;28;20444;-69
2023/07/14 04:16:31;;;;;;;3.25;2.58;;;14.30;99.90;;;;;;5138054;28;20027;-69
2023/07/14 04:18:57;;;;;;;3.42;2.80;;;14.30;99.90;;;;;;5137917;28;20068;-69
2023/07/14 04:21:24;;;;;;;3.92;2.65;;;14.30;99.90;;;;;;5137800;28;20443;-69
2023/07/14 04:23:54;;;;;;;4.13;2.47;;;14.20;99.90;;;;;;5137846;28;20046;-69
2023/07/14 04:26:20;;;;;;;4.10;2.72;;;14.20;99.90;;;;;;5137921;28;20023;-69
2023/07/14 04:28:47;;;;;;;5.22;2.97;;;14.20;99.90;;;;;;5137726;28;20020;-69
2023/07/14 04:31:13;;;;;;;3.75;2.85;;;14.20;99.90;;;;;;5138094;28;20027;-69
2023/07/14 04:33:38;;;;;;;3.75;2.63;;;14.30;99.90;;;;;;5137975;28;20058;-69
2023/07/14 04:36:05;;;;;;;5.40;2.97;;;14.30;99.90;;;;;;5119347;28;20471;-70
2023/07/14 04:38:31;;;;;;;3.92;2.85;;;14.30;99.90;;;;;;5137814;28;20037;-69
2023/07/14 04:40:57;;;;;;;6.53;3.42;;;14.30;99.90;;;;;;5119374;28;20113;-69
2023/07/14 04:43:23;;;;;;;5.60;3.90;;;14.40;99.90;;;;;;5137619;28;20034;-70
2023/07/14 04:45:51;;;;;;;5.72;2.90;;;14.40;99.90;;;;;;5137718;28;20030;-69
2023/07/14 04:48:19;;;;;;;2.97;2.58;;;14.40;99.90;;;;;;5137372;28;20027;-69
2023/07/14 04:50:46;;;;;;;5.25;2.75;;;14.50;99.90;;;;;;5137281;28;20022;-69
2023/07/14 04:53:13;;;;;;;3.10;2.75;;;14.50;99.90;;;;;;5119177;28;20436;-69
2023/07/14 04:55:43;;;;;;;4.15;3.00;;;14.50;99.90;;;;;;5119052;28;20035;-70
2023/07/14 04:58:10;;;;;;;4.20;3.30;;;14.50;99.90;;;;;;5119018;28;20023;-69
2023/07/14 05:00:38;;;;;;;4.55;3.30;;;14.70;99.90;;;;;;5137240;28;20023;-69
2023/07/14 05:03:04;;;;;;;3.70;2.97;;;14.80;99.90;;;;;;5137321;28;20089;-69
2023/07/14 05:05:30;;;;;;;3.72;3.20;;;15.00;99.90;;;;;;5137127;28;20019;-69
2023/07/14 05:07:56;;;;;;;6.68;3.35;;;15.10;99.90;;;;;;5118590;28;20023;-69
2023/07/14 05:10:24;;;;;;;4.95;3.72;;;15.30;99.90;;;;;;5139848;27;20035;-69
2023/07/14 05:12:51;;;;;;;8.48;4.43;;;15.30;99.90;;;;;;5140729;27;20168;-69
2023/07/14 05:15:17;;;;;;;7.70;3.17;;;15.40;99.90;;;;;;5132574;27;20148;-69
2023/07/14 05:17:43;;;;;;;4.05;3.38;;;15.50;99.90;;;;;;5141050;27;20071;-70
2023/07/14 05:20:13;;;;;;;5.28;3.30;;;15.60;99.90;;;;;;5141060;27;20094;-69
2023/07/14 05:22:43;;;;;;;4.22;3.20;;;15.70;99.90;;;;;;5120385;27;20025;-69
2023/07/14 05:25:09;;;;;;;;;;;15.70;99.90;;;;;;5132753;27;20105;-69
2023/07/14 05:27:36;;;;;;;6.57;3.70;;;15.80;99.90;;;;;;5140807;27;19907;-69
2023/07/14 05:30:06;;;;;;;4.10;3.22;;;15.90;99.90;;;;;;5140887;27;20027;-69
2023/07/14 05:32:32;;;;;;;3.72;3.30;;;15.90;99.90;;;;;;5140656;27;20023;-69
2023/07/14 05:34:58;;;;;;;5.28;3.40;;;16.00;99.90;;;;;;5140780;27;20088;-69
2023/07/14 05:37:24;;;;;;;7.53;4.03;;;16.00;99.90;;;;;;5122008;27;20023;-70
2023/07/14 05:39:50;;;;;;;4.25;3.20;;;16.10;99.90;;;;;;5122625;27;20027;-69
2023/07/14 05:42:16;;;;;;;6.75;3.80;;;16.20;99.90;;;;;;5121887;27;20038;-69
2023/07/14 05:44:42;;;;;;;5.50;3.38;;;16.30;99.90;;;;;;5140705;27;20027;-69
2023/07/14 05:47:08;;;;;;;4.80;3.20;;;16.40;99.90;;;;;;5140393;27;20509;-70
2023/07/14 05:49:33;;;;;;;4.32;3.20;;;16.50;99.90;;;;;;5140278;27;20026;-69
2023/07/14 05:51:59;;;;;;;5.68;3.40;;;16.50;99.90;;;;;;5140322;27;20041;-69
2023/07/14 05:54:25;;;;;;;4.40;3.10;;;16.60;99.90;;;;;;5140571;27;20496;-69
2023/07/14 05:56:51;;;;;;;4.05;3.10;;;16.60;99.90;;;;;;5140164;27;20034;-69
2023/07/14 05:59:17;;;;;;;4.55;3.28;;;16.80;99.90;;;;;;5140251;27;20031;-69
2023/07/14 06:01:47;;;;;;;4.85;3.40;;;16.90;99.90;;;;;;5121697;27;20027;-69
2023/07/14 06:04:13;;;;;;;4.45;2.97;;;17.00;99.90;;;;;;5155579;27;20039;-69
2023/07/14 06:06:39;;;;;;;6.13;4.28;;;17.10;99.90;;;;;;5139935;27;20483;-69
2023/07/14 06:09:05;;;;;;;6.93;2.80;;;17.20;99.90;;;;;;5139992;27;20073;-69
2023/07/14 06:11:31;;;;;;;4.22;2.90;;;17.40;99.90;;;;;;5139986;27;20023;-70
2023/07/14 06:13:57;;;;;;;6.60;3.10;;;17.50;99.90;;;;;;5139443;27;20015;-70
2023/07/14 06:16:23;;;;;;;6.00;3.10;;;17.60;99.90;;;;;;5121705;27;20161;-69
2023/07/14 06:18:50;;;;;;;5.35;4.35;;;17.70;99.90;;;;;;5139788;27;20047;-70
2023/07/14 06:21:15;;;;;;;4.95;3.10;;;17.90;99.90;;;;;;5139821;27;20031;-70
2023/07/14 06:23:41;;;;;;;6.70;2.92;;;17.90;99.90;;;;;;5155653;27;20038;-69
2023/07/14 06:26:07;;;;;;;4.57;2.50;;;18.00;99.90;;;;;;5121247;27;20044;-70
2023/07/14 06:28:33;;;;;;;5.28;2.95;;;18.10;99.90;;;;;;5139622;27;20016;-69
2023/07/14 06:31:04;;;;;;;6.90;3.60;;;18.20;99.90;;;;;;5121018;27;20019;-70
2023/07/14 06:33:30;;;;;;;;;;;18.30;99.90;;;;;;5140114;27;20034;-70
2023/07/14 06:35:57;;;;;;;9.25;2.95;;;18.40;99.90;;;;;;5139177;27;19910;-69
2023/07/14 06:38:23;;;;;;;8.13;2.80;;;18.50;99.90;;;;;;5139425;27;20011;-69
2023/07/14 06:41:18;;;;;;;5.38;2.85;;;18.50;99.90;;;;;;5139440;27;20440;-70
2023/07/14 06:43:44;;;;;;;4.40;2.78;;;18.50;99.90;;;;;;5115785;27;20035;-71
2023/07/14 06:46:09;;;;;;;5.88;2.80;;;18.70;99.90;;;;;;5132600;27;20023;-69
2023/07/14 06:48:35;;;;;;;5.22;2.50;;;18.90;99.90;;;;;;5120515;27;20030;-69
2023/07/14 06:51:01;;;;;;;3.92;2.42;;;19.10;99.90;;;;;;5139141;27;20034;-69
2023/07/14 06:53:26;;;;;;;9.77;3.10;;;19.40;99.90;;;;;;5139315;27;20056;-69
2023/07/14 06:55:52;;;;;;;7.25;2.55;;;19.50;99.90;;;;;;5139298;27;20027;-69
2023/07/14 06:58:18;;;;;;;6.75;3.50;;;19.70;99.90;;;;;;5139211;27;20019;-69
2023/07/14 07:00:44;;;;;;;6.32;2.85;;;19.70;99.90;;;;;;5138991;27;20517;-69
2023/07/14 07:03:09;;;;;;;5.35;2.80;;;19.80;99.90;;;;;;5139006;27;20110;-69
2023/07/14 07:05:38;;;;;;;3.28;2.53;;;19.90;99.90;;;;;;5138794;27;20101;-69
2023/07/14 07:08:07;;;;;;;4.45;2.80;;;20.00;99.90;;;;;;5132684;27;20007;-70
2023/07/14 07:10:33;;;;;;;4.60;2.80;;;20.10;99.90;;;;;;5121042;27;20023;-69
2023/07/14 07:12:59;;;;;;;6.45;3.00;;;20.20;99.90;;;;;;5138721;27;20449;-69
2023/07/14 07:15:24;;;;;;;3.42;2.40;;;20.40;99.90;;;;;;5138772;27;20103;-69
2023/07/14 07:17:50;;;;;;;6.82;3.25;;;20.50;99.90;;;;;;5120373;27;20088;-69
2023/07/14 07:20:16;;;;;;;4.53;2.30;;;20.60;99.90;;;;;;5138396;27;20110;-69
2023/07/14 07:22:45;;;;;;;3.92;2.63;;;20.70;99.90;;;;;;5120428;27;20030;-69
2023/07/14 07:25:11;;;;;;;4.82;2.92;;;20.90;99.90;;;;;;5138456;27;20431;-70
2023/07/14 07:27:36;;;;;;;8.32;2.97;;;21.00;99.90;;;;;;5120152;27;20023;-69
2023/07/14 07:30:03;;;;;;;7.03;2.88;;;21.10;99.90;;;;;;5138515;27;20023;-69
2023/07/14 07:32:29;;;;;;;8.57;2.58;;;21.10;99.90;;;;;;5138334;27;20064;-70
2023/07/14 07:34:59;;;;;;;4.63;2.45;;;21.30;99.90;;;;;;5138009;27;20031;-70
2023/07/14 07:37:25;;;;;;;6.15;2.83;;;21.40;99.90;;;;;;5138639;27;20038;-69
2023/07/14 07:39:53;;;;;;;3.88;2.45;;;21.60;99.90;;;;;;5138473;27;20031;-70
2023/07/14 07:42:19;;;;;;;7.45;2.38;;;21.60;99.90;;;;;;5138460;27;20027;-70
2023/07/14 07:44:45;;;;;;;5.03;2.60;;;21.70;99.90;;;;;;5138293;27;20401;-70
2023/07/14 07:47:12;;;;;;;3.60;2.47;;;21.80;99.90;;;;;;5138249;27;20023;-69
2023/07/14 07:49:38;;;;;;;4.10;2.22;;;21.90;99.90;;;;;;5138010;27;20028;-70
2023/07/14 07:52:04;;;;;;;6.15;2.53;;;22.00;99.90;;;;;;5138330;27;20490;-70
2023/07/14 07:54:30;;;;;;;3.63;1.98;;;22.30;99.90;;;;;;5138123;27;20126;-69
2023/07/14 07:56:56;;;;;;;2.85;2.10;;;22.40;99.90;;;;;;5137985;27;20039;-71
2023/07/14 07:59:22;;;;;;;4.10;2.15;;;22.60;99.90;;;;;;5137987;27;20035;-70
2023/07/14 08:01:47;;;;;;;3.05;2.15;;;22.70;99.90;;;;;;5137984;27;20162;-70
2023/07/14 08:04:14;;;;;;;5.28;2.10;;;22.90;99.90;;;;;;5137658;28;20554;-70
2023/07/14 08:06:40;;;;;;;6.53;2.28;;;23.10;99.90;;;;;;5137815;28;20016;-70
2023/07/14 08:09:06;;;;;;;2.55;1.95;;;23.30;99.90;;;;;;5137892;28;20027;-71
2023/07/14 08:11:32;;;;;;;4.55;1.77;;;23.40;99.90;;;;;;5138014;28;20494;-70
2023/07/14 08:13:59;;;;;;;4.38;2.05;;;23.60;99.90;;;;;;5119240;28;20047;-71
2023/07/14 08:16:25;;;;;;;5.18;1.98;;;23.80;99.90;;;;;;5137876;28;20584;-71
2023/07/14 08:18:51;;;;;;;4.47;1.80;;;24.10;99.90;;;;;;5137681;28;20106;-69
2023/07/14 08:21:17;;;;;;;6.07;1.98;;;24.20;99.90;;;;;;5119350;28;20047;-69
2023/07/14 08:23:43;;;;;;;5.78;1.63;;;24.50;99.90;;;;;;5137649;28;20084;-69
2023/07/14 08:26:09;;;;;;;3.58;1.70;;;24.60;99.90;;;;;;5137822;28;20043;-69
2023/07/14 08:28:35;;;;;;;2.40;1.55;;;24.80;99.90;;;;;;5137714;28;20027;-69
2023/07/14 08:31:04;;;;;;;5.90;1.50;;;24.80;99.90;;;;;;5137865;28;20517;-67
2023/07/14 08:33:31;;;;;;;2.95;1.60;;;24.80;99.90;;;;;;5137692;28;20102;-68
2023/07/14 08:36:02;;;;;;;4.10;1.50;;;25.00;99.90;;;;;;5137699;28;20542;-69
2023/07/14 08:38:32;;;;;;;3.00;1.42;;;25.10;99.90;;;;;;5119169;28;20027;-69
2023/07/14 08:41:14;;;;;;;2.63;1.50;;;25.20;99.90;;;;;;5137568;28;20015;-69
2023/07/14 08:44:21;;;;;;;2.58;1.40;;;25.40;99.90;;;;;;5137526;27;20110;-69
2023/07/14 08:47:04;;;;;;;6.95;1.80;;;25.30;99.90;;;;;;5118423;28;20020;-69
2023/07/14 08:49:55;;;;;;;5.75;1.52;;;25.30;99.90;;;;;;5135613;27;20027;-69
2023/07/14 08:52:28;;;;;;;2.00;1.30;;;25.40;99.90;;;;;;5141485;27;20019;-68
2023/07/14 08:54:59;;;;;;;5.30;2.17;;;25.60;99.90;;;;;;5136345;27;21026;-69
2023/07/14 08:57:28;;;;;;;4.65;1.70;;;25.70;99.90;;;;;;5134830;27;20030;-68
2023/07/14 09:00:00;;;;;;;3.85;1.63;;;25.90;99.90;;;;;;5134133;27;20027;-68
2023/07/14 09:03:01;;;;;;;4.13;1.70;;;26.10;99.90;;;;;;5136307;27;20040;-69
2023/07/14 09:05:28;;;;;;;5.25;1.70;;;26.30;99.90;;;;;;5122599;27;20038;-68
2023/07/14 09:07:54;;;;;;;2.05;1.27;;;26.30;99.90;;;;;;5136650;27;20026;-69
2023/07/14 09:10:41;;;;;;;2.45;1.52;;;26.30;99.70;;;;;;5139857;27;20100;-68
2023/07/14 09:13:23;;;;;;;5.43;1.55;;;26.60;99.90;;;;;;5137405;27;20026;-68
2023/07/14 09:15:50;;;;;;;4.25;1.60;;;26.80;99.90;;;;;;5134259;27;20011;-69
2023/07/14 09:18:19;;;;;;;4.95;1.55;;;26.80;99.90;;;;;;5118330;27;20031;-69
2023/07/14 09:20:52;;;;;;;2.85;1.50;;;26.90;97.60;;;;;;5121045;27;20048;-69
2023/07/14 09:23:24;;;;;;;5.15;1.60;;;26.90;99.20;;;;;;5139584;27;20023;-70
2023/07/14 09:26:03;;;;;;;3.45;1.63;;;26.90;98.70;;;;;;5139143;27;20022;-69
2023/07/14 09:28:36;;;;;;;3.40;1.73;;;26.90;98.70;;;;;;5136170;27;20029;-74
2023/07/14 09:31:06;;;;;;;5.03;1.63;;;26.90;98.70;;;;;;5139498;27;20020;-69
2023/07/14 09:33:47;;;;;;;9.00;1.80;;;27.00;98.50;;;;;;5120773;27;20023;-71
2023/07/14 09:36:12;;;;;;;;;;;26.90;97.30;;;;;;5120204;27;20031;-69
2023/07/14 09:38:47;;;;;;;3.00;1.50;;;26.90;98.20;;;;;;5139728;27;19910;-72
2023/07/14 09:41:16;;;;;;;4.45;1.50;;;26.90;99.00;;;;;;5137659;27;20023;-70
2023/07/14 09:43:43;;;;;;;3.83;1.77;;;27.10;98.60;;;;;;5139326;27;20411;-70
2023/07/14 09:46:13;;;;;;;2.90;1.50;;;27.20;99.20;;;;;;5138379;27;20534;-70
2023/07/14 09:48:44;;;;;;;4.45;1.67;;;27.40;98.90;;;;;;5139224;27;20019;-70
2023/07/14 09:51:15;;;;;;;4.53;1.70;;;27.50;98.20;;;;;;5138934;27;20520;-68
2023/07/14 09:54:00;;;;;;;4.78;1.98;;;27.70;98.70;;;;;;5139327;27;20567;-69
2023/07/14 09:56:36;;;;;;;9.18;1.67;;;27.80;97.80;;;;;;5133837;27;20027;-70
2023/07/14 09:59:16;;;;;;;3.40;1.45;;;27.90;98.20;;;;;;5138931;27;20050;-69
2023/07/14 10:01:51;;;;;;;4.63;1.40;;;28.00;98.10;;;;;;5139116;27;20038;-69
2023/07/14 10:04:16;;;;;;;3.28;2.03;;;28.10;98.50;;;;;;5137523;27;20039;-69
2023/07/14 10:06:42;;;;;;;3.55;1.65;;;28.20;98.20;;;;;;5137334;27;20045;-68
2023/07/14 10:09:13;;;;;;;4.43;1.55;;;28.20;97.80;;;;;;5138927;27;20450;-68
2023/07/14 10:11:48;;;;;;;5.18;1.58;;;28.30;96.50;;;;;;5138688;27;20026;-68
2023/07/14 10:14:19;;;;;;;3.47;1.60;;;28.40;96.90;;;;;;5138690;27;20026;-68
2023/07/14 10:16:46;;;;;;;3.50;1.50;;;28.50;96.60;;;;;;5137398;27;20027;-67
2023/07/14 10:19:15;;;;;;;2.30;1.20;;;28.40;96.70;;;;;;5138598;27;20420;-69
2023/07/14 10:21:53;;;;;;;6.18;1.35;;;28.50;97.00;;;;;;5119987;27;20027;-69
2023/07/14 10:24:20;;;;;;;4.38;1.70;;;28.50;95.10;;;;;;5120116;27;20023;-70
2023/07/14 10:26:52;;;;;;;3.40;1.58;;;28.50;96.20;;;;;;5137636;27;20042;-69
2023/07/14 10:29:20;;;;;;;2.30;1.40;;;28.60;97.10;;;;;;5138478;27;20501;-70
2023/07/14 10:31:52;;;;;;;2.83;1.90;;;28.90;96.50;;;;;;5138089;27;20061;-70
2023/07/14 10:34:20;;;;;;;4.03;1.50;;;28.90;96.10;;;;;;5137880;27;20023;-70
2023/07/14 10:36:48;;;;;;;2.83;1.27;;;28.90;95.50;;;;;;5142116;27;20471;-70
2023/07/14 10:39:43;;;;;;;3.58;1.67;;;29.00;95.00;;;;;;5118973;27;20380;-69
2023/07/14 10:42:16;;;;;;;5.90;1.90;;;29.10;95.00;;;;;;5135662;27;20023;-71
2023/07/14 10:44:45;;;;;;;1.77;1.27;;;29.10;95.20;;;;;;5137699;27;20008;-70
2023/07/14 10:47:20;;;;;;;3.22;1.58;;;29.20;95.10;;;;;;5137971;27;20027;-69
2023/07/14 10:50:08;;;;;;;7.65;1.42;;;29.20;94.60;;;;;;5118214;27;20019;-70
2023/07/14 10:52:41;;;;;;;4.53;1.80;;;29.20;94.80;;;;;;5095928;27;20031;-71
2023/07/14 10:55:25;;;;;;;5.15;1.50;;;29.20;95.10;;;;;;5137254;27;20023;-71
2023/07/14 10:58:08;;;;;;;2.78;1.60;;;29.20;95.20;;;;;;5137148;27;20068;-71
2023/07/14 11:01:13;;;;;;;5.10;1.65;;;29.30;95.30;;;;;;5136994;27;20027;-71
2023/07/14 11:03:42;;;;;;;6.47;1.85;;;29.40;94.60;;;;;;5089511;27;20051;-71
2023/07/14 11:06:17;;;;;;;3.75;1.35;;;29.50;94.20;;;;;;5136664;27;20020;-71
2023/07/14 11:08:46;;;;;;;7.15;1.80;;;29.70;94.60;;;;;;5137031;27;20482;-70
2023/07/14 11:11:43;;;;;;;1.80;1.25;;;29.80;93.80;;;;;;5137648;27;20087;-71
2023/07/14 11:14:27;;;;;;;2.50;1.20;;;29.80;94.60;;;;;;5134833;27;20019;-70
2023/07/14 11:17:11;;;;;;;2.60;1.33;;;29.80;93.70;;;;;;5118128;27;20038;-70
2023/07/14 11:20:19;;;;;;;4.07;2.00;;;29.80;93.40;;;;;;5134507;27;20035;-70
2023/07/14 11:23:09;;;;;;;2.70;1.48;;;29.80;94.50;;;;;;5105080;27;20118;-71
2023/07/14 11:26:04;;;;;;;3.10;1.40;;;29.90;93.50;;;;;;5133250;27;20046;-70
2023/07/14 11:28:39;;;;;;;4.88;1.45;;;30.00;92.30;;;;;;5136841;27;20040;-72
2023/07/14 11:31:29;;;;;;;4.35;1.67;;;29.90;93.70;;;;;;5133738;27;20019;-71
2023/07/14 11:34:20;;;;;;;2.88;1.65;;;30.10;92.50;;;;;;5133306;27;20027;-70
2023/07/14 11:36:48;;;;;;;2.65;1.50;;;30.20;92.40;;;;;;5134414;27;20019;-70
2023/07/14 11:39:34;;;;;;;2.88;1.30;;;30.30;93.80;;;;;;5136356;27;20073;-71
2023/07/14 11:42:01;;;;;;;3.58;1.27;;;30.30;93.80;;;;;;5136044;27;20047;-70
2023/07/14 11:44:27;;;;;;;2.28;1.25;;;30.30;91.90;;;;;;5136768;27;20022;-71
2023/07/14 11:46:53;;;;;;;3.33;1.27;;;30.40;92.30;;;;;;5117523;27;20031;-72
2023/07/14 11:49:37;;;;;;;2.33;1.30;;;30.50;92.40;;;;;;5136567;27;20029;-70
2023/07/14 11:52:21;;;;;;;6.10;1.42;;;30.60;93.20;;;;;;5137142;27;20039;-69
2023/07/14 11:54:53;;;;;;;2.00;1.33;;;30.60;91.60;;;;;;5134940;27;20022;-70
2023/07/14 11:57:20;;;;;;;3.28;1.45;;;30.60;91.70;;;;;;5136027;27;20602;-70
2023/07/14 12:00:12;;;;;;;2.80;1.83;;;30.70;92.70;;;;;;5136942;27;20031;-70
2023/07/14 12:02:47;;;;;;;3.05;1.20;;;30.90;91.80;;;;;;5137552;27;20507;-70
2023/07/14 12:05:17;;;;;;;2.55;1.45;;;30.90;92.90;;;;;;5117259;28;20023;-70
2023/07/14 12:08:04;;;;;;;3.33;1.48;;;30.90;91.50;;;;;;5136728;28;20508;-70
2023/07/14 12:10:38;;;;;;;2.78;1.23;;;31.10;91.10;;;;;;5136632;28;20483;-71
2023/07/14 12:13:16;;;;;;;3.58;1.50;;;31.20;91.40;;;;;;5133709;28;20045;-70
2023/07/14 12:16:02;;;;;;;4.32;1.95;;;31.20;90.90;;;;;;5132123;28;20183;-71
2023/07/14 12:18:34;;;;;;;6.07;1.23;;;31.30;90.90;;;;;;5137775;27;20048;-70
2023/07/14 12:21:15;;;;;;;3.92;1.75;;;31.30;91.60;;;;;;5140953;27;20098;-71
2023/07/14 12:23:49;;;;;;;3.70;1.27;;;31.30;90.40;;;;;;5139802;27;20402;-70
2023/07/14 12:26:35;;;;;;;2.75;1.13;;;31.30;88.90;;;;;;5139826;27;20034;-71
2023/07/14 12:29:04;;;;;;;6.18;2.10;;;31.40;87.50;;;;;;5141064;27;20024;-70
2023/07/14 12:31:35;;;;;;;3.45;1.48;;;31.50;91.20;;;;;;5140006;27;20098;-71
2023/07/14 12:34:01;;;;;;;1.95;1.17;;;31.40;87.00;;;;;;5139886;27;20103;-72
2023/07/14 12:36:29;;;;;;;3.05;1.23;;;31.40;88.70;;;;;;5136171;27;20066;-72
2023/07/14 12:38:55;;;;;;;3.33;1.75;;;31.50;87.60;;;;;;5137732;27;20038;-71
2023/07/14 12:41:23;;;;;;;5.47;1.83;;;31.60;87.00;;;;;;5137426;27;20039;-71
2023/07/14 12:43:56;;;;;;;4.50;1.17;;;31.80;89.50;;;;;;5136411;27;20031;-72
2023/07/14 12:46:35;;;;;;;2.25;1.45;;;31.80;87.20;;;;;;5120935;27;20051;-71
2023/07/14 12:49:22;;;;;;;2.60;1.63;;;31.90;84.30;;;;;;5134925;27;20019;-71
2023/07/14 12:51:48;;;;;;;5.65;1.90;;;31.90;86.10;;;;;;5138232;27;20020;-71
2023/07/14 12:54:24;;;;;;;4.85;1.45;;;31.90;85.30;;;;;;5140369;27;20048;-70
2023/07/14 12:56:50;;;;;;;4.20;1.50;;;31.90;84.50;;;;;;5139185;27;20044;-71
2023/07/14 12:59:18;;;;;;;4.50;1.50;;;32.10;84.50;;;;;;5140370;27;20027;-71
2023/07/14 13:01:48;;;;;;;3.83;1.35;;;32.20;85.20;;;;;;5121373;27;20018;-71
2023/07/14 13:04:16;;;;;;;3.33;1.20;;;32.30;83.40;;;;;;5139958;27;20039;-72
2023/07/14 13:06:44;;;;;;;4.40;1.67;;;32.40;85.20;;;;;;5136620;27;20023;-72